sensor_id;sensor_type;location;lat;lon;timestamp;pressure;altitude;pressure_sealevel;temperature;humidity
74905;BME280;63465;50.862;6.220;2023-03-01T00:00:53;101208.63;;;-0.68;74.82
74905;BME280;63465;50.862;6.220;2023-03-01T00:03:19;101207.91;;;-0.61;74.85
74905;BME280;63465;50.862;6.220;2023-03-01T00:05:46;101208.78;;;-0.60;75.08
74905;BME280;63465;50.862;6.220;2023-03-01T00:08:14;101196.53;;;-0.20;73.44
74905;BME280;63465;50.862;6.220;2023-03-01T00:10:41;101199.25;;;-0.14;73.20
74905;BME280;63465;50.862;6.220;2023-03-01T00:13:08;101204.44;;;-0.15;72.40
74905;BME280;63465;50.862;6.220;2023-03-01T00:15:38;101203.22;;;-0.34;73.76
74905;BME280;63465;50.862;6.220;2023-03-01T00:18:04;101199.75;;;-0.35;73.44
74905;BME280;63465;50.862;6.220;2023-03-01T00:20:31;101209.91;;;-0.49;74.16
74905;BME280;63465;50.862;6.220;2023-03-01T00:22:58;101215.84;;;-0.55;74.32
74905;BME280;63465;50.862;6.220;2023-03-01T00:25:26;101217.31;;;-0.67;74.43
74905;BME280;63465;50.862;6.220;2023-03-01T00:27:53;101220.28;;;-0.92;75.26
74905;BME280;63465;50.862;6.220;2023-03-01T00:30:19;101221.75;;;-1.03;76.12
74905;BME280;63465;50.862;6.220;2023-03-01T00:32:46;101227.97;;;-0.98;75.87
74905;BME280;63465;50.862;6.220;2023-03-01T00:35:13;101229.44;;;-1.08;76.06
74905;BME280;63465;50.862;6.220;2023-03-01T00:37:40;101230.88;;;-1.22;77.03
74905;BME280;63465;50.862;6.220;2023-03-01T00:40:08;101228.25;;;-1.22;77.25
74905;BME280;63465;50.862;6.220;2023-03-01T00:42:37;101216.72;;;-0.95;76.80
74905;BME280;63465;50.862;6.220;2023-03-01T00:45:04;101221.78;;;-1.01;76.92
74905;BME280;63465;50.862;6.220;2023-03-01T00:47:31;101221.88;;;-0.97;76.51
74905;BME280;63465;50.862;6.220;2023-03-01T00:49:58;101211.94;;;-1.15;76.55
74905;BME280;63465;50.862;6.220;2023-03-01T00:52:25;101218.00;;;-1.16;76.82
74905;BME280;63465;50.862;6.220;2023-03-01T00:54:52;101217.25;;;-1.10;76.37
74905;BME280;63465;50.862;6.220;2023-03-01T00:57:19;101207.53;;;-1.17;76.14
74905;BME280;63465;50.862;6.220;2023-03-01T00:59:47;101213.69;;;-1.14;76.05
74905;BME280;63465;50.862;6.220;2023-03-01T01:02:13;101210.44;;;-1.03;76.11
74905;BME280;63465;50.862;6.220;2023-03-01T01:04:41;101208.25;;;-0.85;75.49
74905;BME280;63465;50.862;6.220;2023-03-01T01:07:07;101211.53;;;-0.94;75.51
74905;BME280;63465;50.862;6.220;2023-03-01T01:09:34;101203.00;;;-0.86;75.36
74905;BME280;63465;50.862;6.220;2023-03-01T01:12:01;101213.16;;;-0.99;75.39
74905;BME280;63465;50.862;6.220;2023-03-01T01:14:28;101204.16;;;-1.13;76.09
74905;BME280;63465;50.862;6.220;2023-03-01T01:16:56;101199.47;;;-1.28;76.69
74905;BME280;63465;50.862;6.220;2023-03-01T01:19:23;101199.78;;;-1.14;76.58
74905;BME280;63465;50.862;6.220;2023-03-01T01:21:50;101195.59;;;-1.08;76.70
74905;BME280;63465;50.862;6.220;2023-03-01T01:24:18;101181.94;;;-0.97;76.58
74905;BME280;63465;50.862;6.220;2023-03-01T01:26:45;101193.13;;;-1.01;76.36
74905;BME280;63465;50.862;6.220;2023-03-01T01:29:12;101177.41;;;-1.04;75.90
74905;BME280;63465;50.862;6.220;2023-03-01T01:31:41;101179.88;;;-1.11;76.00
74905;BME280;63465;50.862;6.220;2023-03-01T01:34:17;101179.75;;;-1.17;76.11
74905;BME280;63465;50.862;6.220;2023-03-01T01:36:46;101176.09;;;-1.25;76.81
74905;BME280;63465;50.862;6.220;2023-03-01T01:39:14;101173.78;;;-1.13;75.91
74905;BME280;63465;50.862;6.220;2023-03-01T01:41:41;101169.41;;;-1.14;76.23
74905;BME280;63465;50.862;6.220;2023-03-01T01:44:16;101168.78;;;-1.03;75.94
74905;BME280;63465;50.862;6.220;2023-03-01T01:46:44;101161.25;;;-0.90;75.80
74905;BME280;63465;50.862;6.220;2023-03-01T01:49:21;101160.31;;;-0.93;74.82
74905;BME280;63465;50.862;6.220;2023-03-01T01:51:54;101151.19;;;-0.71;74.38
74905;BME280;63465;50.862;6.220;2023-03-01T01:54:28;101150.56;;;-1.02;74.43
74905;BME280;63465;50.862;6.220;2023-03-01T01:56:58;101146.47;;;-0.89;74.45
74905;BME280;63465;50.862;6.220;2023-03-01T01:59:28;101141.88;;;-1.02;74.52
74905;BME280;63465;50.862;6.220;2023-03-01T02:01:59;101149.34;;;-1.18;75.37
74905;BME280;63465;50.862;6.220;2023-03-01T02:04:30;101148.34;;;-1.23;75.27
74905;BME280;63465;50.862;6.220;2023-03-01T02:07:01;101133.75;;;-1.16;75.94
74905;BME280;63465;50.862;6.220;2023-03-01T02:09:30;101126.28;;;-1.01;75.41
74905;BME280;63465;50.862;6.220;2023-03-01T02:11:58;101121.28;;;-0.90;74.97
74905;BME280;63465;50.862;6.220;2023-03-01T02:14:25;101116.41;;;-0.73;73.86
74905;BME280;63465;50.862;6.220;2023-03-01T02:16:52;101119.00;;;-0.75;74.01
74905;BME280;63465;50.862;6.220;2023-03-01T02:19:31;101117.09;;;-0.82;73.61
74905;BME280;63465;50.862;6.220;2023-03-01T02:22:03;101108.19;;;-0.93;74.21
74905;BME280;63465;50.862;6.220;2023-03-01T02:24:38;101108.81;;;-1.05;74.38
74905;BME280;63465;50.862;6.220;2023-03-01T02:27:09;101119.47;;;-1.34;75.63
74905;BME280;63465;50.862;6.220;2023-03-01T02:29:37;101114.09;;;-1.41;75.81
74905;BME280;63465;50.862;6.220;2023-03-01T02:32:04;101110.22;;;-1.21;75.20
74905;BME280;63465;50.862;6.220;2023-03-01T02:34:32;101111.28;;;-1.11;74.61
74905;BME280;63465;50.862;6.220;2023-03-01T02:37:01;101120.16;;;-1.01;74.27
74905;BME280;63465;50.862;6.220;2023-03-01T02:39:32;101118.88;;;-1.22;74.46
74905;BME280;63465;50.862;6.220;2023-03-01T02:42:01;101109.50;;;-1.52;75.32
74905;BME280;63465;50.862;6.220;2023-03-01T02:44:29;101119.72;;;-1.61;76.93
74905;BME280;63465;50.862;6.220;2023-03-01T02:46:58;101112.84;;;-1.59;76.55
74905;BME280;63465;50.862;6.220;2023-03-01T02:49:30;101125.22;;;-1.47;76.42
74905;BME280;63465;50.862;6.220;2023-03-01T02:52:23;101122.84;;;-1.76;77.20
74905;BME280;63465;50.862;6.220;2023-03-01T02:54:58;101119.09;;;-1.51;76.98
74905;BME280;63465;50.862;6.220;2023-03-01T02:57:28;101136.38;;;-1.89;77.85
74905;BME280;63465;50.862;6.220;2023-03-01T02:59:57;101132.97;;;-1.88;78.08
74905;BME280;63465;50.862;6.220;2023-03-01T03:02:29;101133.44;;;-2.03;78.65
74905;BME280;63465;50.862;6.220;2023-03-01T03:05:08;101123.19;;;-1.97;78.05
74905;BME280;63465;50.862;6.220;2023-03-01T03:07:37;101127.84;;;-1.85;78.01
74905;BME280;63465;50.862;6.220;2023-03-01T03:10:06;101122.44;;;-1.93;78.57
74905;BME280;63465;50.862;6.220;2023-03-01T03:12:33;101120.13;;;-1.81;78.61
74905;BME280;63465;50.862;6.220;2023-03-01T03:15:00;101123.31;;;-1.92;78.63
74905;BME280;63465;50.862;6.220;2023-03-01T03:17:28;101109.75;;;-1.79;78.30
74905;BME280;63465;50.862;6.220;2023-03-01T03:19:54;101110.81;;;-1.71;77.76
74905;BME280;63465;50.862;6.220;2023-03-01T03:22:21;101111.78;;;-1.66;77.49
74905;BME280;63465;50.862;6.220;2023-03-01T03:24:48;101107.31;;;-1.73;77.75
74905;BME280;63465;50.862;6.220;2023-03-01T03:27:14;101102.13;;;-1.71;77.38
74905;BME280;63465;50.862;6.220;2023-03-01T03:29:41;101096.25;;;-1.63;76.39
74905;BME280;63465;50.862;6.220;2023-03-01T03:32:08;101107.50;;;-1.65;76.93
74905;BME280;63465;50.862;6.220;2023-03-01T03:34:36;101106.03;;;-1.52;75.83
74905;BME280;63465;50.862;6.220;2023-03-01T03:37:02;101098.94;;;-1.96;77.22
74905;BME280;63465;50.862;6.220;2023-03-01T03:39:49;101102.41;;;-1.95;77.42
74905;BME280;63465;50.862;6.220;2023-03-01T03:42:20;101092.06;;;-2.27;77.78
74905;BME280;63465;50.862;6.220;2023-03-01T03:44:47;101101.09;;;-2.13;78.07
74905;BME280;63465;50.862;6.220;2023-03-01T03:47:13;101098.69;;;-2.05;77.86
74905;BME280;63465;50.862;6.220;2023-03-01T03:49:42;101082.44;;;-1.97;77.56
74905;BME280;63465;50.862;6.220;2023-03-01T03:52:08;101095.84;;;-2.15;78.36
74905;BME280;63465;50.862;6.220;2023-03-01T03:54:39;101081.53;;;-1.99;77.43
74905;BME280;63465;50.862;6.220;2023-03-01T03:57:06;101087.78;;;-1.90;77.62
74905;BME280;63465;50.862;6.220;2023-03-01T03:59:32;101095.34;;;-2.01;77.80
74905;BME280;63465;50.862;6.220;2023-03-01T04:01:59;101099.16;;;-2.22;78.39
74905;BME280;63465;50.862;6.220;2023-03-01T04:04:26;101092.53;;;-2.09;78.71
74905;BME280;63465;50.862;6.220;2023-03-01T04:06:54;101096.72;;;-2.16;78.36
74905;BME280;63465;50.862;6.220;2023-03-01T04:09:20;101097.66;;;-2.12;77.88
74905;BME280;63465;50.862;6.220;2023-03-01T04:11:47;101085.69;;;-2.05;78.43
74905;BME280;63465;50.862;6.220;2023-03-01T04:14:14;101086.59;;;-2.05;77.58
74905;BME280;63465;50.862;6.220;2023-03-01T04:16:40;101074.44;;;-2.04;77.89
74905;BME280;63465;50.862;6.220;2023-03-01T04:19:07;101067.59;;;-2.01;78.04
74905;BME280;63465;50.862;6.220;2023-03-01T04:21:34;101073.28;;;-2.17;79.23
74905;BME280;63465;50.862;6.220;2023-03-01T04:24:04;101072.28;;;-2.21;78.52
74905;BME280;63465;50.862;6.220;2023-03-01T04:26:31;101069.34;;;-2.35;79.01
74905;BME280;63465;50.862;6.220;2023-03-01T04:28:58;101064.16;;;-2.35;79.49
74905;BME280;63465;50.862;6.220;2023-03-01T04:31:25;101059.94;;;-2.31;79.54
74905;BME280;63465;50.862;6.220;2023-03-01T04:33:53;101061.94;;;-2.19;78.91
74905;BME280;63465;50.862;6.220;2023-03-01T04:36:22;101052.00;;;-2.36;79.20
74905;BME280;63465;50.862;6.220;2023-03-01T04:38:49;101058.56;;;-2.50;79.04
74905;BME280;63465;50.862;6.220;2023-03-01T04:41:20;101049.81;;;-2.54;80.20
74905;BME280;63465;50.862;6.220;2023-03-01T04:43:48;101054.81;;;-2.61;80.32
74905;BME280;63465;50.862;6.220;2023-03-01T04:46:16;101061.53;;;-2.68;80.00
74905;BME280;63465;50.862;6.220;2023-03-01T04:48:44;101058.56;;;-2.82;80.10
74905;BME280;63465;50.862;6.220;2023-03-01T04:51:12;101060.59;;;-2.72;80.37
74905;BME280;63465;50.862;6.220;2023-03-01T04:53:40;101061.59;;;-2.66;80.49
74905;BME280;63465;50.862;6.220;2023-03-01T04:56:06;101069.00;;;-2.48;79.39
74905;BME280;63465;50.862;6.220;2023-03-01T04:58:35;101053.00;;;-2.30;78.79
74905;BME280;63465;50.862;6.220;2023-03-01T05:01:08;101049.75;;;-2.22;78.15
74905;BME280;63465;50.862;6.220;2023-03-01T05:03:40;101052.22;;;-2.28;78.21
74905;BME280;63465;50.862;6.220;2023-03-01T05:06:07;101047.91;;;-2.26;78.43
74905;BME280;63465;50.862;6.220;2023-03-01T05:08:34;101057.09;;;-2.40;80.01
74905;BME280;63465;50.862;6.220;2023-03-01T05:11:03;101044.34;;;-2.31;80.04
74905;BME280;63465;50.862;6.220;2023-03-01T05:13:30;101053.91;;;-2.63;80.49
74905;BME280;63465;50.862;6.220;2023-03-01T05:16:00;101058.13;;;-2.67;80.83
74905;BME280;63465;50.862;6.220;2023-03-01T05:18:28;101044.19;;;-2.71;81.14
74905;BME280;63465;50.862;6.220;2023-03-01T05:21:03;101046.47;;;-2.81;81.47
74905;BME280;63465;50.862;6.220;2023-03-01T05:23:30;101041.69;;;-2.66;81.42
74905;BME280;63465;50.862;6.220;2023-03-01T05:25:57;101045.47;;;-2.53;80.57
74905;BME280;63465;50.862;6.220;2023-03-01T05:28:25;101042.09;;;-2.51;80.95
74905;BME280;63465;50.862;6.220;2023-03-01T05:30:53;101039.66;;;-2.44;81.03
74905;BME280;63465;50.862;6.220;2023-03-01T05:33:21;101041.50;;;-2.40;80.66
74905;BME280;63465;50.862;6.220;2023-03-01T05:35:49;101033.84;;;-2.34;80.94
74905;BME280;63465;50.862;6.220;2023-03-01T05:38:17;101033.09;;;-2.28;80.39
74905;BME280;63465;50.862;6.220;2023-03-01T05:40:45;101036.03;;;-2.51;80.41
74905;BME280;63465;50.862;6.220;2023-03-01T05:43:14;101041.91;;;-2.58;80.95
74905;BME280;63465;50.862;6.220;2023-03-01T05:45:42;101040.31;;;-2.52;80.82
74905;BME280;63465;50.862;6.220;2023-03-01T05:48:10;101040.88;;;-2.30;80.35
74905;BME280;63465;50.862;6.220;2023-03-01T05:50:40;101036.66;;;-2.26;79.93
74905;BME280;63465;50.862;6.220;2023-03-01T05:53:10;101043.47;;;-2.30;79.28
74905;BME280;63465;50.862;6.220;2023-03-01T05:55:37;101044.44;;;-2.26;78.48
74905;BME280;63465;50.862;6.220;2023-03-01T05:58:06;101053.91;;;-2.28;79.12
74905;BME280;63465;50.862;6.220;2023-03-01T06:00:34;101046.06;;;-2.30;79.08
74905;BME280;63465;50.862;6.220;2023-03-01T06:03:01;101053.63;;;-2.39;79.58
74905;BME280;63465;50.862;6.220;2023-03-01T06:05:28;101055.50;;;-2.67;80.09
74905;BME280;63465;50.862;6.220;2023-03-01T06:07:58;101054.56;;;-2.37;79.62
74905;BME280;63465;50.862;6.220;2023-03-01T06:10:25;101048.50;;;-2.36;78.85
74905;BME280;63465;50.862;6.220;2023-03-01T06:12:53;101051.13;;;-2.36;79.25
74905;BME280;63465;50.862;6.220;2023-03-01T06:15:20;101041.22;;;-2.16;78.46
74905;BME280;63465;50.862;6.220;2023-03-01T06:17:47;101050.56;;;-2.24;77.37
74905;BME280;63465;50.862;6.220;2023-03-01T06:20:16;101038.50;;;-2.21;77.76
74905;BME280;63465;50.862;6.220;2023-03-01T06:22:43;101040.31;;;-2.18;77.29
74905;BME280;63465;50.862;6.220;2023-03-01T06:25:14;101042.75;;;-2.24;77.32
74905;BME280;63465;50.862;6.220;2023-03-01T06:27:41;101045.28;;;-2.61;78.78
74905;BME280;63465;50.862;6.220;2023-03-01T06:30:10;101037.06;;;-2.44;79.10
74905;BME280;63465;50.862;6.220;2023-03-01T06:32:38;101038.66;;;-2.49;79.18
74905;BME280;63465;50.862;6.220;2023-03-01T06:35:08;101035.47;;;-2.38;78.04
74905;BME280;63465;50.862;6.220;2023-03-01T06:37:35;101028.78;;;-2.29;78.07
74905;BME280;63465;50.862;6.220;2023-03-01T06:40:02;101031.63;;;-2.19;77.40
74905;BME280;63465;50.862;6.220;2023-03-01T06:42:35;101027.13;;;-2.26;77.74
74905;BME280;63465;50.862;6.220;2023-03-01T06:45:02;101034.94;;;-2.59;79.10
74905;BME280;63465;50.862;6.220;2023-03-01T06:47:29;101030.28;;;-2.38;78.49
74905;BME280;63465;50.862;6.220;2023-03-01T06:49:56;101041.50;;;-2.40;78.47
74905;BME280;63465;50.862;6.220;2023-03-01T06:52:23;101046.31;;;-2.88;79.53
74905;BME280;63465;50.862;6.220;2023-03-01T06:54:49;101040.88;;;-2.97;80.39
74905;BME280;63465;50.862;6.220;2023-03-01T06:57:16;101047.00;;;-2.93;81.21
74905;BME280;63465;50.862;6.220;2023-03-01T06:59:46;101039.63;;;-2.78;80.84
74905;BME280;63465;50.862;6.220;2023-03-01T07:02:13;101052.78;;;-2.72;80.64
74905;BME280;63465;50.862;6.220;2023-03-01T07:04:40;101043.88;;;-2.49;79.94
74905;BME280;63465;50.862;6.220;2023-03-01T07:07:08;101047.94;;;-2.59;79.43
74905;BME280;63465;50.862;6.220;2023-03-01T07:09:34;101037.38;;;-2.65;79.96
74905;BME280;63465;50.862;6.220;2023-03-01T07:12:01;101043.78;;;-2.53;80.29
74905;BME280;63465;50.862;6.220;2023-03-01T07:14:28;101045.56;;;-2.50;79.63
74905;BME280;63465;50.862;6.220;2023-03-01T07:16:56;101044.03;;;-2.43;79.60
74905;BME280;63465;50.862;6.220;2023-03-01T07:19:24;101037.13;;;-2.06;78.86
74905;BME280;63465;50.862;6.220;2023-03-01T07:21:50;101039.72;;;-2.06;78.68
74905;BME280;63465;50.862;6.220;2023-03-01T07:24:17;101043.91;;;-2.11;78.47
74905;BME280;63465;50.862;6.220;2023-03-01T07:26:44;101037.78;;;-2.15;78.76
74905;BME280;63465;50.862;6.220;2023-03-01T07:29:10;101032.75;;;-2.07;79.05
74905;BME280;63465;50.862;6.220;2023-03-01T07:31:37;101034.34;;;-2.14;79.82
74905;BME280;63465;50.862;6.220;2023-03-01T07:34:05;101026.25;;;-1.90;79.16
74905;BME280;63465;50.862;6.220;2023-03-01T07:36:32;101032.06;;;-1.62;77.68
74905;BME280;63465;50.862;6.220;2023-03-01T07:38:58;101021.13;;;-1.87;77.96
74905;BME280;63465;50.862;6.220;2023-03-01T07:41:27;101027.56;;;-1.69;78.01
74905;BME280;63465;50.862;6.220;2023-03-01T07:43:54;101021.44;;;-1.73;77.95
74905;BME280;63465;50.862;6.220;2023-03-01T07:46:21;101018.38;;;-1.93;78.59
74905;BME280;63465;50.862;6.220;2023-03-01T07:48:48;101023.47;;;-1.98;79.38
74905;BME280;63465;50.862;6.220;2023-03-01T07:51:16;101028.69;;;-1.98;79.74
74905;BME280;63465;50.862;6.220;2023-03-01T07:53:45;101026.88;;;-2.00;79.28
74905;BME280;63465;50.862;6.220;2023-03-01T07:56:14;101024.69;;;-1.82;79.91
74905;BME280;63465;50.862;6.220;2023-03-01T07:58:43;101029.78;;;-1.86;79.60
74905;BME280;63465;50.862;6.220;2023-03-01T08:01:12;101031.81;;;-1.74;80.12
74905;BME280;63465;50.862;6.220;2023-03-01T08:03:39;101031.69;;;-1.79;80.19
74905;BME280;63465;50.862;6.220;2023-03-01T08:06:08;101016.44;;;-1.64;80.46
74905;BME280;63465;50.862;6.220;2023-03-01T08:08:37;101007.97;;;-1.52;80.18
74905;BME280;63465;50.862;6.220;2023-03-01T08:11:06;101011.75;;;-1.39;80.32
74905;BME280;63465;50.862;6.220;2023-03-01T08:13:33;101015.47;;;-1.26;80.35
74905;BME280;63465;50.862;6.220;2023-03-01T08:16:01;101012.91;;;-1.24;80.27
74905;BME280;63465;50.862;6.220;2023-03-01T08:18:28;101006.88;;;-1.22;80.76
74905;BME280;63465;50.862;6.220;2023-03-01T08:20:55;101007.25;;;-1.03;79.61
74905;BME280;63465;50.862;6.220;2023-03-01T08:23:21;101000.22;;;-1.06;78.42
74905;BME280;63465;50.862;6.220;2023-03-01T08:25:49;101006.75;;;-0.84;78.75
74905;BME280;63465;50.862;6.220;2023-03-01T08:28:16;100999.81;;;-0.82;78.06
74905;BME280;63465;50.862;6.220;2023-03-01T08:30:43;101008.53;;;-0.80;78.29
74905;BME280;63465;50.862;6.220;2023-03-01T08:33:09;101004.59;;;-0.59;77.89
74905;BME280;63465;50.862;6.220;2023-03-01T08:35:36;101003.72;;;-0.60;76.60
74905;BME280;63465;50.862;6.220;2023-03-01T08:38:03;101003.06;;;-0.46;77.24
74905;BME280;63465;50.862;6.220;2023-03-01T08:40:29;101013.63;;;-0.39;77.25
74905;BME280;63465;50.862;6.220;2023-03-01T08:42:59;101014.69;;;-0.27;77.22
74905;BME280;63465;50.862;6.220;2023-03-01T08:45:25;101008.56;;;-0.29;77.23
74905;BME280;63465;50.862;6.220;2023-03-01T08:47:52;101009.56;;;-0.23;75.05
74905;BME280;63465;50.862;6.220;2023-03-01T08:50:19;101001.00;;;-0.11;72.97
74905;BME280;63465;50.862;6.220;2023-03-01T08:52:46;101004.53;;;-0.09;73.61
74905;BME280;63465;50.862;6.220;2023-03-01T08:55:12;100999.44;;;-0.01;73.33
74905;BME280;63465;50.862;6.220;2023-03-01T08:57:41;101003.16;;;0.15;73.81
74905;BME280;63465;50.862;6.220;2023-03-01T09:00:10;101005.16;;;0.33;72.57
74905;BME280;63465;50.862;6.220;2023-03-01T09:02:40;100987.75;;;0.33;71.95
74905;BME280;63465;50.862;6.220;2023-03-01T09:05:08;100993.84;;;0.32;70.77
74905;BME280;63465;50.862;6.220;2023-03-01T09:07:34;100991.28;;;0.35;71.67
74905;BME280;63465;50.862;6.220;2023-03-01T09:10:01;100990.47;;;0.43;71.94
74905;BME280;63465;50.862;6.220;2023-03-01T09:12:28;100987.88;;;0.43;71.57
74905;BME280;63465;50.862;6.220;2023-03-01T09:14:55;100993.03;;;0.40;70.29
74905;BME280;63465;50.862;6.220;2023-03-01T09:17:23;100989.53;;;0.38;69.16
74905;BME280;63465;50.862;6.220;2023-03-01T09:19:50;100998.44;;;0.53;68.60
74905;BME280;63465;50.862;6.220;2023-03-01T09:22:16;100998.81;;;0.80;68.68
74905;BME280;63465;50.862;6.220;2023-03-01T09:24:43;101003.19;;;0.85;67.94
74905;BME280;63465;50.862;6.220;2023-03-01T09:27:10;101005.06;;;0.94;67.73
74905;BME280;63465;50.862;6.220;2023-03-01T09:29:38;100999.16;;;1.12;66.76
74905;BME280;63465;50.862;6.220;2023-03-01T09:32:05;101002.59;;;1.08;67.52
74905;BME280;63465;50.862;6.220;2023-03-01T09:34:34;100993.50;;;0.74;68.76
74905;BME280;63465;50.862;6.220;2023-03-01T09:37:22;100989.13;;;0.73;69.11
74905;BME280;63465;50.862;6.220;2023-03-01T09:39:49;100994.53;;;0.88;68.48
74905;BME280;63465;50.862;6.220;2023-03-01T09:42:15;100991.97;;;0.93;68.23
74905;BME280;63465;50.862;6.220;2023-03-01T09:44:46;100992.34;;;1.28;68.16
74905;BME280;63465;50.862;6.220;2023-03-01T09:47:18;100976.75;;;1.39;67.73
74905;BME280;63465;50.862;6.220;2023-03-01T09:49:53;100975.94;;;1.45;66.60
74905;BME280;63465;50.862;6.220;2023-03-01T09:52:29;100967.47;;;1.73;66.08
74905;BME280;63465;50.862;6.220;2023-03-01T09:55:00;100960.34;;;1.58;67.31
74905;BME280;63465;50.862;6.220;2023-03-01T09:57:30;100973.50;;;1.66;67.09
74905;BME280;63465;50.862;6.220;2023-03-01T10:00:12;100966.91;;;2.21;64.46
74905;BME280;63465;50.862;6.220;2023-03-01T10:02:45;100956.72;;;3.01;62.39
74905;BME280;63465;50.862;6.220;2023-03-01T10:05:26;100951.44;;;4.32;59.51
74905;BME280;63465;50.862;6.220;2023-03-01T10:08:06;100948.38;;;5.18;55.53
74905;BME280;63465;50.862;6.220;2023-03-01T10:10:44;100943.91;;;6.28;53.07
74905;BME280;63465;50.862;6.220;2023-03-01T10:13:17;100948.16;;;5.48;52.70
74905;BME280;63465;50.862;6.220;2023-03-01T10:15:49;100957.06;;;5.25;53.26
74905;BME280;63465;50.862;6.220;2023-03-01T10:18:22;100950.06;;;6.28;52.04
74905;BME280;63465;50.862;6.220;2023-03-01T10:20:55;100941.25;;;5.34;54.63
74905;BME280;63465;50.862;6.220;2023-03-01T10:23:23;100938.44;;;5.58;53.89
74905;BME280;63465;50.862;6.220;2023-03-01T10:29:07;100936.69;;;5.55;54.01
74905;BME280;63465;50.862;6.220;2023-03-01T10:31:39;100926.38;;;6.25;51.56
74905;BME280;63465;50.862;6.220;2023-03-01T10:34:11;100932.31;;;6.42;51.51
74905;BME280;63465;50.862;6.220;2023-03-01T10:36:41;100919.31;;;6.27;51.43
74905;BME280;63465;50.862;6.220;2023-03-01T10:39:14;100907.34;;;5.95;50.97
74905;BME280;63465;50.862;6.220;2023-03-01T10:41:56;100909.34;;;6.51;49.87
74905;BME280;63465;50.862;6.220;2023-03-01T10:44:39;100905.78;;;9.40;42.74
74905;BME280;63465;50.862;6.220;2023-03-01T10:47:13;100918.28;;;8.55;43.42
74905;BME280;63465;50.862;6.220;2023-03-01T10:49:51;100894.59;;;11.17;37.34
74905;BME280;63465;50.862;6.220;2023-03-01T10:52:22;100911.38;;;8.03;43.42
74905;BME280;63465;50.862;6.220;2023-03-01T10:54:55;100904.38;;;7.99;44.53
74905;BME280;63465;50.862;6.220;2023-03-01T10:57:34;100901.81;;;6.88;46.83
74905;BME280;63465;50.862;6.220;2023-03-01T11:00:23;100897.13;;;7.62;45.07
74905;BME280;63465;50.862;6.220;2023-03-01T11:03:02;100906.84;;;7.05;47.39
74905;BME280;63465;50.862;6.220;2023-03-01T11:05:29;100896.25;;;7.63;46.24
74905;BME280;63465;50.862;6.220;2023-03-01T11:08:01;100892.91;;;7.52;46.18
74905;BME280;63465;50.862;6.220;2023-03-01T11:10:31;100887.38;;;8.97;42.88
74905;BME280;63465;50.862;6.220;2023-03-01T11:13:07;100883.00;;;8.11;44.34
74905;BME280;63465;50.862;6.220;2023-03-01T11:15:34;100870.53;;;9.01;44.26
74905;BME280;63465;50.862;6.220;2023-03-01T11:18:02;100865.69;;;11.87;36.24
74905;BME280;63465;50.862;6.220;2023-03-01T11:20:31;100863.94;;;12.58;34.13
74905;BME280;63465;50.862;6.220;2023-03-01T11:23:02;100876.31;;;11.87;34.48
74905;BME280;63465;50.862;6.220;2023-03-01T11:25:33;100868.94;;;10.88;35.97
74905;BME280;63465;50.862;6.220;2023-03-01T11:28:04;100866.81;;;9.44;39.08
74905;BME280;63465;50.862;6.220;2023-03-01T11:30:35;100857.44;;;9.31;40.05
74905;BME280;63465;50.862;6.220;2023-03-01T11:33:13;100847.13;;;9.87;38.91
74905;BME280;63465;50.862;6.220;2023-03-01T11:35:47;100853.78;;;8.99;40.07
74905;BME280;63465;50.862;6.220;2023-03-01T11:38:21;100847.91;;;11.62;36.08
74905;BME280;63465;50.862;6.220;2023-03-01T11:40:52;100844.97;;;11.18;38.42
74905;BME280;63465;50.862;6.220;2023-03-01T11:43:31;100843.34;;;13.50;31.73
74905;BME280;63465;50.862;6.220;2023-03-01T11:46:27;100846.28;;;9.52;39.02
74905;BME280;63465;50.862;6.220;2023-03-01T11:49:07;100851.91;;;9.40;39.84
74905;BME280;63465;50.862;6.220;2023-03-01T11:51:44;100844.00;;;8.65;42.48
74905;BME280;63465;50.862;6.220;2023-03-01T11:54:27;100846.16;;;11.09;37.44
74905;BME280;63465;50.862;6.220;2023-03-01T11:57:00;100836.34;;;9.93;39.61
74905;BME280;63465;50.862;6.220;2023-03-01T11:59:45;100824.59;;;9.38;39.37
74905;BME280;63465;50.862;6.220;2023-03-01T12:05:30;100822.94;;;11.14;37.56
74905;BME280;63465;50.862;6.220;2023-03-01T12:08:08;100815.31;;;9.87;38.87
74905;BME280;63465;50.862;6.220;2023-03-01T12:10:43;100820.16;;;9.04;40.69
74905;BME280;63465;50.862;6.220;2023-03-01T12:13:45;100807.84;;;9.01;40.75
74905;BME280;63465;50.862;6.220;2023-03-01T12:16:23;100796.44;;;9.67;40.15
74905;BME280;63465;50.862;6.220;2023-03-01T12:19:05;100800.78;;;10.00;40.38
74905;BME280;63465;50.862;6.220;2023-03-01T12:21:45;100794.94;;;11.81;36.62
74905;BME280;63465;50.862;6.220;2023-03-01T12:24:43;100801.91;;;9.60;39.62
74905;BME280;63465;50.862;6.220;2023-03-01T12:27:45;100793.91;;;9.29;40.35
74905;BME280;63465;50.862;6.220;2023-03-01T12:30:24;100789.88;;;8.78;41.43
74905;BME280;63465;50.862;6.220;2023-03-01T12:33:02;100791.06;;;9.37;40.57
74905;BME280;63465;50.862;6.220;2023-03-01T12:35:45;100793.75;;;9.35;40.33
74905;BME280;63465;50.862;6.220;2023-03-01T12:38:29;100792.69;;;9.42;40.85
74905;BME280;63465;50.862;6.220;2023-03-01T12:41:11;100789.00;;;7.98;44.88
74905;BME280;63465;50.862;6.220;2023-03-01T12:43:48;100784.91;;;8.64;42.39
74905;BME280;63465;50.862;6.220;2023-03-01T12:46:27;100789.94;;;8.36;44.01
74905;BME280;63465;50.862;6.220;2023-03-01T12:49:04;100794.84;;;8.12;43.27
74905;BME280;63465;50.862;6.220;2023-03-01T12:51:34;100781.28;;;8.70;43.54
74905;BME280;63465;50.862;6.220;2023-03-01T12:54:07;100782.22;;;7.38;45.10
74905;BME280;63465;50.862;6.220;2023-03-01T12:56:38;100783.84;;;7.46;45.63
74905;BME280;63465;50.862;6.220;2023-03-01T12:59:12;100773.84;;;6.61;47.11
74905;BME280;63465;50.862;6.220;2023-03-01T13:01:45;100768.16;;;6.86;48.42
74905;BME280;63465;50.862;6.220;2023-03-01T13:04:29;100764.13;;;6.66;48.81
74905;BME280;63465;50.862;6.220;2023-03-01T13:07:13;100760.28;;;6.27;48.63
74905;BME280;63465;50.862;6.220;2023-03-01T13:09:48;100757.34;;;5.81;49.77
74905;BME280;63465;50.862;6.220;2023-03-01T13:12:46;100755.63;;;5.77;49.23
74905;BME280;63465;50.862;6.220;2023-03-01T13:15:27;100752.09;;;5.80;48.54